INFORMACIÓN METAR y TAF
METAR FOR CYXZ
ADDS - METARS form results

(1116 UTC 15 November 2019)
Data provider http://aviationweather.gov/metar/data/
 
METAR text: CYXZ 151100Z 31007KT 260V330 3SM -SN SCT015 BKN035 M07/M10 A3002 RMK SF3SC4 /S03 AFT 0000UTC/ SLP187
Conditions at: CYXZ (WAWA AIRPORT , ON, CA) observed 1100 UTC 15 November 2019
Temperature: -7.0°C (19°F)
Dewpoint: -10.0°C (14°F) [RH = 79%]
Pressure (altimeter): 30.02 inches Hg (1016.7 mb)
[Sea-level pressure: 1018.7 mb]
Winds: from the NW (310 degrees) at 8 MPH (7 knots; 3.6 m/s)
Visibility: 3 miles ( 5 km)
Ceiling: 3500 feet AGL
Clouds: scattered clouds at 1500 feet AGL
broken clouds at 3500 feet AGL
Weather: -SN  (light snow)

 MAPA DE AEROPUERTO

 INFORMACIÓN DE PISTA
Pista 03 Longitud 4429 ft Ancho 100 ft
Elevación 942 ft Umbral desplazado 0 ft Rumbo de pista 24
Pista 21 Longitud 4429 ft Ancho 100 ft
Elevación 942 ft Umbral desplazado 689 ft Rumbo de pista 204

 FRECUANCIAS DEL AEROPUERTO
Tipo CNTR Nombre TORONTO CN Frecuencia 124.075 MHZ
Tipo RCO Nombre LONDON RDO Frecuencia 126.7 MHZ
Tipo UNIC Nombre ATF/UNICOM Frecuencia 122.8 MHZ

 RADIO AYUDAS DEL AEROPUERTO
Tipo NDB Nombre Wawa Frecuencia 205 KHZ
Tipo VOR-DME Nombre Wawa Frecuencia 112700 KHZ



Powered by Virtual Airlines Manager [v2.6.2]